sensor_id;sensor_type;location;lat;lon;timestamp;temperature;humidity
18361;SHT31;9308;48.550;9.108;2023-03-11T00:00:40;2.26;66.97
18361;SHT31;9308;48.550;9.108;2023-03-11T00:03:08;2.21;66.64
18361;SHT31;9308;48.550;9.108;2023-03-11T00:05:36;2.24;66.70
18361;SHT31;9308;48.550;9.108;2023-03-11T00:08:03;2.20;66.75
18361;SHT31;9308;48.550;9.108;2023-03-11T00:10:40;2.18;66.55
18361;SHT31;9308;48.550;9.108;2023-03-11T00:13:07;2.21;67.21
18361;SHT31;9308;48.550;9.108;2023-03-11T00:15:35;2.29;66.53
18361;SHT31;9308;48.550;9.108;2023-03-11T00:18:00;2.38;66.87
18361;SHT31;9308;48.550;9.108;2023-03-11T00:20:32;2.18;66.89
18361;SHT31;9308;48.550;9.108;2023-03-11T00:22:58;2.18;66.85
18361;SHT31;9308;48.550;9.108;2023-03-11T00:25:26;2.18;66.76
18361;SHT31;9308;48.550;9.108;2023-03-11T00:27:53;2.29;66.68
18361;SHT31;9308;48.550;9.108;2023-03-11T00:30:19;2.26;67.01
18361;SHT31;9308;48.550;9.108;2023-03-11T00:32:49;2.33;67.38
18361;SHT31;9308;48.550;9.108;2023-03-11T00:35:18;2.42;66.34
18361;SHT31;9308;48.550;9.108;2023-03-11T00:37:45;2.49;66.89
18361;SHT31;9308;48.550;9.108;2023-03-11T00:40:13;2.55;66.55
18361;SHT31;9308;48.550;9.108;2023-03-11T00:42:38;2.58;67.18
18361;SHT31;9308;48.550;9.108;2023-03-11T00:45:05;2.71;66.75
18361;SHT31;9308;48.550;9.108;2023-03-11T00:47:30;2.71;67.16
18361;SHT31;9308;48.550;9.108;2023-03-11T00:49:56;2.66;66.69
18361;SHT31;9308;48.550;9.108;2023-03-11T00:52:21;2.73;66.88
18361;SHT31;9308;48.550;9.108;2023-03-11T00:54:47;2.65;66.60
18361;SHT31;9308;48.550;9.108;2023-03-11T00:57:12;2.75;66.49
18361;SHT31;9308;48.550;9.108;2023-03-11T00:59:37;2.64;66.30
18361;SHT31;9308;48.550;9.108;2023-03-11T01:02:03;2.80;66.37
18361;SHT31;9308;48.550;9.108;2023-03-11T01:04:29;2.65;66.31
18361;SHT31;9308;48.550;9.108;2023-03-11T01:06:54;2.73;67.08
18361;SHT31;9308;48.550;9.108;2023-03-11T01:09:19;2.83;66.45
18361;SHT31;9308;48.550;9.108;2023-03-11T01:11:45;2.78;66.45
18361;SHT31;9308;48.550;9.108;2023-03-11T01:14:10;2.78;66.43
18361;SHT31;9308;48.550;9.108;2023-03-11T01:16:36;2.76;66.66
18361;SHT31;9308;48.550;9.108;2023-03-11T01:19:01;2.75;66.68
18361;SHT31;9308;48.550;9.108;2023-03-11T01:21:27;2.92;66.43
18361;SHT31;9308;48.550;9.108;2023-03-11T01:23:52;2.87;66.52
18361;SHT31;9308;48.550;9.108;2023-03-11T01:26:18;2.85;67.06
18361;SHT31;9308;48.550;9.108;2023-03-11T01:28:43;2.87;67.36
18361;SHT31;9308;48.550;9.108;2023-03-11T01:31:09;2.78;66.21
18361;SHT31;9308;48.550;9.108;2023-03-11T01:33:34;2.86;67.12
18361;SHT31;9308;48.550;9.108;2023-03-11T01:36:00;2.75;67.09
18361;SHT31;9308;48.550;9.108;2023-03-11T01:38:25;2.78;67.28
18361;SHT31;9308;48.550;9.108;2023-03-11T01:40:51;2.86;67.23
18361;SHT31;9308;48.550;9.108;2023-03-11T01:46:29;2.64;67.44
18361;SHT31;9308;48.550;9.108;2023-03-11T01:48:58;2.76;67.28
18361;SHT31;9308;48.550;9.108;2023-03-11T01:51:38;2.80;66.79
18361;SHT31;9308;48.550;9.108;2023-03-11T01:54:14;2.79;67.32
18361;SHT31;9308;48.550;9.108;2023-03-11T01:56:40;2.73;67.12
18361;SHT31;9308;48.550;9.108;2023-03-11T01:59:11;2.49;67.97
18361;SHT31;9308;48.550;9.108;2023-03-11T02:01:45;2.54;68.04
18361;SHT31;9308;48.550;9.108;2023-03-11T02:04:15;2.47;67.81
18361;SHT31;9308;48.550;9.108;2023-03-11T02:06:41;2.57;67.97
18361;SHT31;9308;48.550;9.108;2023-03-11T02:09:06;2.64;67.59
18361;SHT31;9308;48.550;9.108;2023-03-11T02:11:33;2.61;67.45
18361;SHT31;9308;48.550;9.108;2023-03-11T02:14:02;2.73;67.13
18361;SHT31;9308;48.550;9.108;2023-03-11T02:16:28;2.59;66.72
18361;SHT31;9308;48.550;9.108;2023-03-11T02:18:56;2.49;66.62
18361;SHT31;9308;48.550;9.108;2023-03-11T02:21:28;2.33;67.26
18361;SHT31;9308;48.550;9.108;2023-03-11T02:24:01;2.29;66.57
18361;SHT31;9308;48.550;9.108;2023-03-11T02:26:40;2.26;67.02
18361;SHT31;9308;48.550;9.108;2023-03-11T02:29:08;2.24;67.03
18361;SHT31;9308;48.550;9.108;2023-03-11T02:31:37;2.20;66.97
18361;SHT31;9308;48.550;9.108;2023-03-11T02:34:04;2.15;66.44
18361;SHT31;9308;48.550;9.108;2023-03-11T02:36:40;2.17;66.66
18361;SHT31;9308;48.550;9.108;2023-03-11T02:39:07;2.23;66.65
18361;SHT31;9308;48.550;9.108;2023-03-11T02:41:36;2.09;66.54
18361;SHT31;9308;48.550;9.108;2023-03-11T02:44:04;2.24;66.45
18361;SHT31;9308;48.550;9.108;2023-03-11T02:46:31;2.13;66.04
18361;SHT31;9308;48.550;9.108;2023-03-11T02:48:57;2.10;66.38
18361;SHT31;9308;48.550;9.108;2023-03-11T02:51:24;2.11;66.63
18361;SHT31;9308;48.550;9.108;2023-03-11T02:53:54;2.29;66.45
18361;SHT31;9308;48.550;9.108;2023-03-11T02:56:20;2.14;66.41
18361;SHT31;9308;48.550;9.108;2023-03-11T02:58:46;2.04;66.35
18361;SHT31;9308;48.550;9.108;2023-03-11T03:01:12;1.90;66.52
18361;SHT31;9308;48.550;9.108;2023-03-11T03:03:38;1.85;66.48
18361;SHT31;9308;48.550;9.108;2023-03-11T03:06:04;1.82;66.91
18361;SHT31;9308;48.550;9.108;2023-03-11T03:08:30;1.79;67.48
18361;SHT31;9308;48.550;9.108;2023-03-11T03:10:55;1.76;66.34
18361;SHT31;9308;48.550;9.108;2023-03-11T03:13:20;1.75;66.76
18361;SHT31;9308;48.550;9.108;2023-03-11T03:15:46;1.61;66.73
18361;SHT31;9308;48.550;9.108;2023-03-11T03:18:11;1.68;66.07
18361;SHT31;9308;48.550;9.108;2023-03-11T03:20:37;1.69;65.75
18361;SHT31;9308;48.550;9.108;2023-03-11T03:23:02;1.68;65.58
18361;SHT31;9308;48.550;9.108;2023-03-11T03:25:28;1.65;65.63
18361;SHT31;9308;48.550;9.108;2023-03-11T03:27:53;1.50;65.49
18361;SHT31;9308;48.550;9.108;2023-03-11T03:30:19;1.52;65.36
18361;SHT31;9308;48.550;9.108;2023-03-11T03:32:45;1.43;66.04
18361;SHT31;9308;48.550;9.108;2023-03-11T03:35:10;1.38;65.76
18361;SHT31;9308;48.550;9.108;2023-03-11T03:37:36;1.34;66.12
18361;SHT31;9308;48.550;9.108;2023-03-11T03:40:03;1.31;66.35
18361;SHT31;9308;48.550;9.108;2023-03-11T03:42:33;1.23;67.22
18361;SHT31;9308;48.550;9.108;2023-03-11T03:44:59;1.15;67.38
18361;SHT31;9308;48.550;9.108;2023-03-11T03:47:25;1.06;67.10
18361;SHT31;9308;48.550;9.108;2023-03-11T03:49:50;1.00;66.81
18361;SHT31;9308;48.550;9.108;2023-03-11T03:52:15;0.96;65.71
18361;SHT31;9308;48.550;9.108;2023-03-11T03:54:41;0.90;66.03
18361;SHT31;9308;48.550;9.108;2023-03-11T03:57:07;0.83;65.33
18361;SHT31;9308;48.550;9.108;2023-03-11T03:59:32;0.86;64.96
18361;SHT31;9308;48.550;9.108;2023-03-11T04:01:57;0.82;65.06
18361;SHT31;9308;48.550;9.108;2023-03-11T04:04:23;0.80;65.14
18361;SHT31;9308;48.550;9.108;2023-03-11T04:06:49;0.71;65.17
18361;SHT31;9308;48.550;9.108;2023-03-11T04:09:14;0.71;65.28
18361;SHT31;9308;48.550;9.108;2023-03-11T04:11:39;0.68;65.39
18361;SHT31;9308;48.550;9.108;2023-03-11T04:14:05;0.73;65.04
18361;SHT31;9308;48.550;9.108;2023-03-11T04:16:31;0.73;65.25
18361;SHT31;9308;48.550;9.108;2023-03-11T04:18:56;0.76;65.12
18361;SHT31;9308;48.550;9.108;2023-03-11T04:21:22;0.64;65.46
18361;SHT31;9308;48.550;9.108;2023-03-11T04:23:48;0.62;65.49
18361;SHT31;9308;48.550;9.108;2023-03-11T04:26:13;0.72;65.39
18361;SHT31;9308;48.550;9.108;2023-03-11T04:28:39;0.64;64.95
18361;SHT31;9308;48.550;9.108;2023-03-11T04:31:04;0.71;65.85
18361;SHT31;9308;48.550;9.108;2023-03-11T04:33:30;0.62;65.95
18361;SHT31;9308;48.550;9.108;2023-03-11T04:35:56;0.55;66.00
18361;SHT31;9308;48.550;9.108;2023-03-11T04:38:21;0.54;65.87
18361;SHT31;9308;48.550;9.108;2023-03-11T04:40:47;0.55;65.66
18361;SHT31;9308;48.550;9.108;2023-03-11T04:43:12;0.45;65.84
18361;SHT31;9308;48.550;9.108;2023-03-11T04:45:39;0.38;65.99
18361;SHT31;9308;48.550;9.108;2023-03-11T04:48:05;0.37;65.75
18361;SHT31;9308;48.550;9.108;2023-03-11T04:50:30;0.30;66.18
18361;SHT31;9308;48.550;9.108;2023-03-11T04:52:56;0.21;66.53
18361;SHT31;9308;48.550;9.108;2023-03-11T04:55:22;0.14;66.78
18361;SHT31;9308;48.550;9.108;2023-03-11T04:57:47;0.12;67.08
18361;SHT31;9308;48.550;9.108;2023-03-11T05:00:14;0.12;67.34
18361;SHT31;9308;48.550;9.108;2023-03-11T05:02:40;0.20;67.01
18361;SHT31;9308;48.550;9.108;2023-03-11T05:05:07;0.23;68.14
18361;SHT31;9308;48.550;9.108;2023-03-11T05:07:34;0.30;68.36
18361;SHT31;9308;48.550;9.108;2023-03-11T05:09:59;0.40;67.88
18361;SHT31;9308;48.550;9.108;2023-03-11T05:12:25;0.23;68.71
18361;SHT31;9308;48.550;9.108;2023-03-11T05:14:50;0.27;67.88
18361;SHT31;9308;48.550;9.108;2023-03-11T05:17:16;0.30;66.97
18361;SHT31;9308;48.550;9.108;2023-03-11T05:19:44;0.31;67.24
18361;SHT31;9308;48.550;9.108;2023-03-11T05:22:09;0.20;67.83
18361;SHT31;9308;48.550;9.108;2023-03-11T05:24:35;0.24;67.31
18361;SHT31;9308;48.550;9.108;2023-03-11T05:27:00;0.33;67.22
18361;SHT31;9308;48.550;9.108;2023-03-11T05:29:26;0.33;67.80
18361;SHT31;9308;48.550;9.108;2023-03-11T05:31:52;0.36;67.46
18361;SHT31;9308;48.550;9.108;2023-03-11T05:34:17;0.37;67.39
18361;SHT31;9308;48.550;9.108;2023-03-11T05:36:43;0.38;66.99
18361;SHT31;9308;48.550;9.108;2023-03-11T05:39:09;0.41;66.72
18361;SHT31;9308;48.550;9.108;2023-03-11T05:41:35;0.41;66.66
18361;SHT31;9308;48.550;9.108;2023-03-11T05:44:02;0.41;66.50
18361;SHT31;9308;48.550;9.108;2023-03-11T05:46:28;0.40;66.83
18361;SHT31;9308;48.550;9.108;2023-03-11T05:48:53;0.37;66.75
18361;SHT31;9308;48.550;9.108;2023-03-11T05:51:19;0.33;67.35
18361;SHT31;9308;48.550;9.108;2023-03-11T05:53:46;0.38;67.82
18361;SHT31;9308;48.550;9.108;2023-03-11T05:56:14;0.37;67.58
18361;SHT31;9308;48.550;9.108;2023-03-11T05:58:40;0.42;67.16
18361;SHT31;9308;48.550;9.108;2023-03-11T06:01:09;0.48;68.58
18361;SHT31;9308;48.550;9.108;2023-03-11T06:03:36;0.88;66.71
18361;SHT31;9308;48.550;9.108;2023-03-11T06:06:04;0.76;67.75
18361;SHT31;9308;48.550;9.108;2023-03-11T06:08:30;0.90;66.38
18361;SHT31;9308;48.550;9.108;2023-03-11T06:11:03;1.00;66.10
18361;SHT31;9308;48.550;9.108;2023-03-11T06:13:29;1.06;66.14
18361;SHT31;9308;48.550;9.108;2023-03-11T06:15:54;1.22;65.73
18361;SHT31;9308;48.550;9.108;2023-03-11T06:18:20;1.20;65.44
18361;SHT31;9308;48.550;9.108;2023-03-11T06:20:45;1.15;64.74
18361;SHT31;9308;48.550;9.108;2023-03-11T06:23:11;1.22;65.16
18361;SHT31;9308;48.550;9.108;2023-03-11T06:25:36;1.26;64.87
18361;SHT31;9308;48.550;9.108;2023-03-11T06:28:02;1.37;64.96
18361;SHT31;9308;48.550;9.108;2023-03-11T06:30:28;1.31;64.92
18361;SHT31;9308;48.550;9.108;2023-03-11T06:32:54;1.40;64.90
18361;SHT31;9308;48.550;9.108;2023-03-11T06:35:19;1.28;64.37
18361;SHT31;9308;48.550;9.108;2023-03-11T06:37:45;1.45;64.40
18361;SHT31;9308;48.550;9.108;2023-03-11T06:40:11;1.40;63.57
18361;SHT31;9308;48.550;9.108;2023-03-11T06:42:37;1.68;63.98
18361;SHT31;9308;48.550;9.108;2023-03-11T06:45:02;1.55;64.34
18361;SHT31;9308;48.550;9.108;2023-03-11T06:47:28;1.87;64.12
18361;SHT31;9308;48.550;9.108;2023-03-11T06:49:53;1.81;63.80
18361;SHT31;9308;48.550;9.108;2023-03-11T06:52:19;1.93;63.06
18361;SHT31;9308;48.550;9.108;2023-03-11T06:54:45;2.07;62.72
18361;SHT31;9308;48.550;9.108;2023-03-11T06:57:11;2.18;62.97
18361;SHT31;9308;48.550;9.108;2023-03-11T06:59:36;2.36;62.99
18361;SHT31;9308;48.550;9.108;2023-03-11T07:02:03;2.48;62.50
18361;SHT31;9308;48.550;9.108;2023-03-11T07:04:29;2.87;60.73
18361;SHT31;9308;48.550;9.108;2023-03-11T07:06:55;2.72;61.21
18361;SHT31;9308;48.550;9.108;2023-03-11T07:09:21;2.55;60.61
18361;SHT31;9308;48.550;9.108;2023-03-11T07:11:50;2.73;60.01
18361;SHT31;9308;48.550;9.108;2023-03-11T07:14:16;2.92;60.21
18361;SHT31;9308;48.550;9.108;2023-03-11T07:16:42;2.82;59.84
18361;SHT31;9308;48.550;9.108;2023-03-11T07:19:08;2.90;60.12
18361;SHT31;9308;48.550;9.108;2023-03-11T07:21:33;2.79;60.35
18361;SHT31;9308;48.550;9.108;2023-03-11T07:24:00;2.85;60.65
18361;SHT31;9308;48.550;9.108;2023-03-11T07:26:28;2.76;60.57
18361;SHT31;9308;48.550;9.108;2023-03-11T07:28:55;2.97;60.49
18361;SHT31;9308;48.550;9.108;2023-03-11T07:31:40;2.82;58.71
18361;SHT31;9308;48.550;9.108;2023-03-11T07:34:05;2.78;59.38
18361;SHT31;9308;48.550;9.108;2023-03-11T07:36:36;2.96;59.45
18361;SHT31;9308;48.550;9.108;2023-03-11T07:39:04;3.10;59.58
18361;SHT31;9308;48.550;9.108;2023-03-11T07:41:31;3.06;59.35
18361;SHT31;9308;48.550;9.108;2023-03-11T07:43:58;3.24;59.08
18361;SHT31;9308;48.550;9.108;2023-03-11T07:46:26;3.20;58.78
18361;SHT31;9308;48.550;9.108;2023-03-11T07:48:52;3.47;58.87
18361;SHT31;9308;48.550;9.108;2023-03-11T07:51:23;3.16;57.35
18361;SHT31;9308;48.550;9.108;2023-03-11T07:53:51;3.54;58.01
18361;SHT31;9308;48.550;9.108;2023-03-11T07:56:17;3.17;57.92
18361;SHT31;9308;48.550;9.108;2023-03-11T07:58:43;3.32;57.87
18361;SHT31;9308;48.550;9.108;2023-03-11T08:01:18;3.55;57.43
18361;SHT31;9308;48.550;9.108;2023-03-11T08:03:45;3.52;57.37
18361;SHT31;9308;48.550;9.108;2023-03-11T08:08:37;3.48;56.88
18361;SHT31;9308;48.550;9.108;2023-03-11T08:11:03;3.41;58.00
18361;SHT31;9308;48.550;9.108;2023-03-11T08:13:28;3.43;57.53
18361;SHT31;9308;48.550;9.108;2023-03-11T08:15:54;3.50;58.16
18361;SHT31;9308;48.550;9.108;2023-03-11T08:18:19;3.44;57.94
18361;SHT31;9308;48.550;9.108;2023-03-11T08:20:45;3.83;56.81
18361;SHT31;9308;48.550;9.108;2023-03-11T08:23:10;3.79;55.86
18361;SHT31;9308;48.550;9.108;2023-03-11T08:25:39;3.76;55.65
18361;SHT31;9308;48.550;9.108;2023-03-11T08:28:06;3.76;54.63
18361;SHT31;9308;48.550;9.108;2023-03-11T08:30:32;3.63;54.59
18361;SHT31;9308;48.550;9.108;2023-03-11T08:32:58;3.68;55.42
18361;SHT31;9308;48.550;9.108;2023-03-11T08:35:23;4.01;55.44
18361;SHT31;9308;48.550;9.108;2023-03-11T08:37:50;4.25;54.19
18361;SHT31;9308;48.550;9.108;2023-03-11T08:40:16;4.66;55.50
18361;SHT31;9308;48.550;9.108;2023-03-11T08:42:41;4.39;53.91
18361;SHT31;9308;48.550;9.108;2023-03-11T08:45:07;5.06;53.94
18361;SHT31;9308;48.550;9.108;2023-03-11T08:47:34;5.15;52.74
18361;SHT31;9308;48.550;9.108;2023-03-11T08:50:01;5.63;50.82
18361;SHT31;9308;48.550;9.108;2023-03-11T08:52:26;5.32;51.22
18361;SHT31;9308;48.550;9.108;2023-03-11T08:54:52;5.20;53.03
18361;SHT31;9308;48.550;9.108;2023-03-11T08:57:17;5.14;53.53
18361;SHT31;9308;48.550;9.108;2023-03-11T08:59:42;4.39;53.01
18361;SHT31;9308;48.550;9.108;2023-03-11T09:02:09;4.73;53.57
18361;SHT31;9308;48.550;9.108;2023-03-11T09:04:35;4.77;53.21
18361;SHT31;9308;48.550;9.108;2023-03-11T09:07:01;4.48;53.34
18361;SHT31;9308;48.550;9.108;2023-03-11T09:09:26;4.45;54.60
18361;SHT31;9308;48.550;9.108;2023-03-11T09:11:52;4.62;54.15
18361;SHT31;9308;48.550;9.108;2023-03-11T09:14:17;5.08;53.17
18361;SHT31;9308;48.550;9.108;2023-03-11T09:16:43;5.93;51.92
18361;SHT31;9308;48.550;9.108;2023-03-11T09:19:09;6.31;49.95
18361;SHT31;9308;48.550;9.108;2023-03-11T09:21:35;5.91;48.37
18361;SHT31;9308;48.550;9.108;2023-03-11T09:24:02;5.87;49.13
18361;SHT31;9308;48.550;9.108;2023-03-11T09:26:29;5.68;47.94
18361;SHT31;9308;48.550;9.108;2023-03-11T09:28:55;5.39;49.12
18361;SHT31;9308;48.550;9.108;2023-03-11T09:31:20;5.13;48.64
18361;SHT31;9308;48.550;9.108;2023-03-11T09:33:46;5.53;48.80
18361;SHT31;9308;48.550;9.108;2023-03-11T09:36:14;5.61;49.59
18361;SHT31;9308;48.550;9.108;2023-03-11T09:38:40;5.59;48.77
18361;SHT31;9308;48.550;9.108;2023-03-11T09:49:18;5.49;47.93
18361;SHT31;9308;48.550;9.108;2023-03-11T09:51:51;5.87;44.96
18361;SHT31;9308;48.550;9.108;2023-03-11T09:54:18;5.58;44.99
18361;SHT31;9308;48.550;9.108;2023-03-11T09:56:43;5.68;45.08
18361;SHT31;9308;48.550;9.108;2023-03-11T09:59:25;6.38;47.06
18361;SHT31;9308;48.550;9.108;2023-03-11T10:01:51;7.24;45.11
18361;SHT31;9308;48.550;9.108;2023-03-11T10:04:22;7.63;43.26
18361;SHT31;9308;48.550;9.108;2023-03-11T10:06:51;7.05;43.81
18361;SHT31;9308;48.550;9.108;2023-03-11T10:20:02;9.38;39.96
18361;SHT31;9308;48.550;9.108;2023-03-11T10:22:48;9.63;40.82
18361;SHT31;9308;48.550;9.108;2023-03-11T10:25:23;9.45;39.85
18361;SHT31;9308;48.550;9.108;2023-03-11T10:28:02;9.24;41.11
18361;SHT31;9308;48.550;9.108;2023-03-11T10:30:43;9.49;40.91
18361;SHT31;9308;48.550;9.108;2023-03-11T10:33:23;9.27;41.46
18361;SHT31;9308;48.550;9.108;2023-03-11T10:35:56;8.21;41.11
18361;SHT31;9308;48.550;9.108;2023-03-11T10:38:27;8.08;42.85
18361;SHT31;9308;48.550;9.108;2023-03-11T10:40:58;8.13;41.65
18361;SHT31;9308;48.550;9.108;2023-03-11T10:43:36;7.52;42.62
18361;SHT31;9308;48.550;9.108;2023-03-11T10:46:10;8.04;42.14
18361;SHT31;9308;48.550;9.108;2023-03-11T10:48:39;7.41;41.85
18361;SHT31;9308;48.550;9.108;2023-03-11T10:51:20;7.36;41.14
18361;SHT31;9308;48.550;9.108;2023-03-11T10:53:52;7.45;42.22
18361;SHT31;9308;48.550;9.108;2023-03-11T10:56:36;8.35;39.36
18361;SHT31;9308;48.550;9.108;2023-03-11T10:59:04;8.92;38.99
18361;SHT31;9308;48.550;9.108;2023-03-11T11:01:30;10.00;38.46
18361;SHT31;9308;48.550;9.108;2023-03-11T11:03:58;10.42;37.78
18361;SHT31;9308;48.550;9.108;2023-03-11T11:06:27;10.32;36.05
18361;SHT31;9308;48.550;9.108;2023-03-11T11:11:38;10.46;36.68
18361;SHT31;9308;48.550;9.108;2023-03-11T11:14:04;9.82;35.87
18361;SHT31;9308;48.550;9.108;2023-03-11T11:16:32;9.31;37.09
18361;SHT31;9308;48.550;9.108;2023-03-11T11:19:01;8.60;37.66
18361;SHT31;9308;48.550;9.108;2023-03-11T11:21:39;9.34;39.11
18361;SHT31;9308;48.550;9.108;2023-03-11T11:24:25;10.01;36.92
18361;SHT31;9308;48.550;9.108;2023-03-11T11:27:04;10.55;38.76
18361;SHT31;9308;48.550;9.108;2023-03-11T11:29:29;9.85;40.29
18361;SHT31;9308;48.550;9.108;2023-03-11T11:32:15;10.17;37.78
18361;SHT31;9308;48.550;9.108;2023-03-11T11:34:57;9.94;39.14
18361;SHT31;9308;48.550;9.108;2023-03-11T11:37:24;9.74;39.35
18361;SHT31;9308;48.550;9.108;2023-03-11T11:39:57;10.71;37.04
18361;SHT31;9308;48.550;9.108;2023-03-11T11:42:25;11.34;35.17
18361;SHT31;9308;48.550;9.108;2023-03-11T11:44:57;12.21;34.20
18361;SHT31;9308;48.550;9.108;2023-03-11T11:47:29;12.90;32.07
18361;SHT31;9308;48.550;9.108;2023-03-11T11:50:00;14.82;31.96
18361;SHT31;9308;48.550;9.108;2023-03-11T11:52:30;22.75;23.67
18361;SHT31;9308;48.550;9.108;2023-03-11T11:55:17;28.21;16.17
18361;SHT31;9308;48.550;9.108;2023-03-11T11:57:45;29.38;15.08
18361;SHT31;9308;48.550;9.108;2023-03-11T12:00:20;32.23;13.58
18361;SHT31;9308;48.550;9.108;2023-03-11T12:05:35;34.15;12.48
18361;SHT31;9308;48.550;9.108;2023-03-11T12:08:15;34.44;11.43
18361;SHT31;9308;48.550;9.108;2023-03-11T12:11:00;35.72;11.92
18361;SHT31;9308;48.550;9.108;2023-03-11T12:13:44;35.84;11.55
18361;SHT31;9308;48.550;9.108;2023-03-11T12:16:29;35.10;12.05
18361;SHT31;9308;48.550;9.108;2023-03-11T12:19:02;37.67;11.10
18361;SHT31;9308;48.550;9.108;2023-03-11T12:22:01;38.40;11.00
18361;SHT31;9308;48.550;9.108;2023-03-11T12:27:39;37.07;10.83
18361;SHT31;9308;48.550;9.108;2023-03-11T12:30:31;37.77;10.66
18361;SHT31;9308;48.550;9.108;2023-03-11T12:33:29;37.37;10.83
18361;SHT31;9308;48.550;9.108;2023-03-11T12:35:57;35.55;11.37
18361;SHT31;9308;48.550;9.108;2023-03-11T12:38:38;34.33;12.06
18361;SHT31;9308;48.550;9.108;2023-03-11T12:41:31;32.01;13.67
18361;SHT31;9308;48.550;9.108;2023-03-11T12:44:03;27.35;14.66
18361;SHT31;9308;48.550;9.108;2023-03-11T12:49:29;27.45;14.99
18361;SHT31;9308;48.550;9.108;2023-03-11T12:54:35;25.52;15.86
18361;SHT31;9308;48.550;9.108;2023-03-11T13:05:20;21.54;19.22
18361;SHT31;9308;48.550;9.108;2023-03-11T13:07:57;19.59;20.45
18361;SHT31;9308;48.550;9.108;2023-03-11T13:10:40;19.03;21.15
18361;SHT31;9308;48.550;9.108;2023-03-11T13:13:22;16.51;24.65
18361;SHT31;9308;48.550;9.108;2023-03-11T13:15:48;17.09;23.26
18361;SHT31;9308;48.550;9.108;2023-03-11T13:18:17;17.65;21.56
18361;SHT31;9308;48.550;9.108;2023-03-11T13:20:47;14.65;25.15
18361;SHT31;9308;48.550;9.108;2023-03-11T13:25:40;16.80;22.81
18361;SHT31;9308;48.550;9.108;2023-03-11T13:28:38;23.53;18.04
18361;SHT31;9308;48.550;9.108;2023-03-11T13:31:28;24.76;16.88
18361;SHT31;9308;48.550;9.108;2023-03-11T13:34:14;27.21;15.17
18361;SHT31;9308;48.550;9.108;2023-03-11T13:39:46;24.26;18.02
18361;SHT31;9308;48.550;9.108;2023-03-11T13:44:42;24.93;16.70
18361;SHT31;9308;48.550;9.108;2023-03-11T13:47:13;23.74;17.08
18361;SHT31;9308;48.550;9.108;2023-03-11T13:49:47;25.10;16.50
18361;SHT31;9308;48.550;9.108;2023-03-11T13:52:21;28.18;13.66
18361;SHT31;9308;48.550;9.108;2023-03-11T13:54:58;25.19;16.13
18361;SHT31;9308;48.550;9.108;2023-03-11T13:57:32;23.97;16.53
18361;SHT31;9308;48.550;9.108;2023-03-11T14:00:05;23.40;17.71
18361;SHT31;9308;48.550;9.108;2023-03-11T14:02:43;25.98;15.46
18361;SHT31;9308;48.550;9.108;2023-03-11T14:05:14;27.93;14.11
18361;SHT31;9308;48.550;9.108;2023-03-11T14:07:40;28.35;14.32
18361;SHT31;9308;48.550;9.108;2023-03-11T14:12:46;25.12;15.64
18361;SHT31;9308;48.550;9.108;2023-03-11T14:15:14;23.39;18.38
18361;SHT31;9308;48.550;9.108;2023-03-11T14:17:42;21.92;18.68
18361;SHT31;9308;48.550;9.108;2023-03-11T14:20:14;23.12;17.27
18361;SHT31;9308;48.550;9.108;2023-03-11T14:22:44;22.64;17.73
18361;SHT31;9308;48.550;9.108;2023-03-11T14:25:16;21.03;18.28
18361;SHT31;9308;48.550;9.108;2023-03-11T14:27:47;19.62;20.13
18361;SHT31;9308;48.550;9.108;2023-03-11T14:30:20;18.86;21.35
18361;SHT31;9308;48.550;9.108;2023-03-11T14:33:17;18.58;22.32
18361;SHT31;9308;48.550;9.108;2023-03-11T14:35:50;17.85;22.57
18361;SHT31;9308;48.550;9.108;2023-03-11T14:38:24;17.04;22.63
18361;SHT31;9308;48.550;9.108;2023-03-11T14:40:55;16.88;24.34
18361;SHT31;9308;48.550;9.108;2023-03-11T14:43:21;14.75;26.10
18361;SHT31;9308;48.550;9.108;2023-03-11T14:45:48;13.28;26.73
18361;SHT31;9308;48.550;9.108;2023-03-11T14:48:19;13.23;28.72
18361;SHT31;9308;48.550;9.108;2023-03-11T14:50:48;12.83;29.99
18361;SHT31;9308;48.550;9.108;2023-03-11T14:53:31;13.56;28.79
18361;SHT31;9308;48.550;9.108;2023-03-11T14:56:03;12.53;29.00
18361;SHT31;9308;48.550;9.108;2023-03-11T14:58:39;13.06;28.31
18361;SHT31;9308;48.550;9.108;2023-03-11T15:01:16;12.13;29.83
18361;SHT31;9308;48.550;9.108;2023-03-11T15:03:46;11.44;30.38
18361;SHT31;9308;48.550;9.108;2023-03-11T15:06:14;11.18;31.93
18361;SHT31;9308;48.550;9.108;2023-03-11T15:08:51;10.77;32.62
18361;SHT31;9308;48.550;9.108;2023-03-11T15:11:22;11.18;31.81
18361;SHT31;9308;48.550;9.108;2023-03-11T15:13:50;11.01;32.85
18361;SHT31;9308;48.550;9.108;2023-03-11T15:16:33;10.71;34.35
18361;SHT31;9308;48.550;9.108;2023-03-11T15:21:46;10.27;33.68
18361;SHT31;9308;48.550;9.108;2023-03-11T15:24:19;10.27;33.36
18361;SHT31;9308;48.550;9.108;2023-03-11T15:29:18;10.15;35.59
18361;SHT31;9308;48.550;9.108;2023-03-11T15:31:44;10.20;34.04
18361;SHT31;9308;48.550;9.108;2023-03-11T15:39:17;9.74;34.54
18361;SHT31;9308;48.550;9.108;2023-03-11T15:41:46;10.00;34.20
18361;SHT31;9308;48.550;9.108;2023-03-11T15:44:21;9.53;34.21
18361;SHT31;9308;48.550;9.108;2023-03-11T15:46:48;9.74;34.81
18361;SHT31;9308;48.550;9.108;2023-03-11T15:49:13;9.65;35.02
18361;SHT31;9308;48.550;9.108;2023-03-11T15:51:39;9.86;35.51
18361;SHT31;9308;48.550;9.108;2023-03-11T15:54:04;9.76;35.66
18361;SHT31;9308;48.550;9.108;2023-03-11T15:56:30;9.27;36.18
18361;SHT31;9308;48.550;9.108;2023-03-11T15:58:58;8.89;37.27
18361;SHT31;9308;48.550;9.108;2023-03-11T16:01:23;8.83;37.64
18361;SHT31;9308;48.550;9.108;2023-03-11T16:03:53;8.75;36.94
18361;SHT31;9308;48.550;9.108;2023-03-11T16:06:19;8.46;38.08
18361;SHT31;9308;48.550;9.108;2023-03-11T16:08:46;8.79;37.85
18361;SHT31;9308;48.550;9.108;2023-03-11T16:11:12;8.72;37.33
18361;SHT31;9308;48.550;9.108;2023-03-11T16:13:37;8.16;38.04
18361;SHT31;9308;48.550;9.108;2023-03-11T16:16:03;8.18;39.50
18361;SHT31;9308;48.550;9.108;2023-03-11T16:18:28;8.35;38.69
18361;SHT31;9308;48.550;9.108;2023-03-11T16:20:54;8.39;38.57
18361;SHT31;9308;48.550;9.108;2023-03-11T16:23:27;8.39;39.31
18361;SHT31;9308;48.550;9.108;2023-03-11T16:25:57;8.32;38.89
18361;SHT31;9308;48.550;9.108;2023-03-11T16:28:23;7.86;41.45
18361;SHT31;9308;48.550;9.108;2023-03-11T16:30:49;7.66;42.23
18361;SHT31;9308;48.550;9.108;2023-03-11T16:33:15;7.45;43.25
18361;SHT31;9308;48.550;9.108;2023-03-11T16:35:40;7.55;42.93
18361;SHT31;9308;48.550;9.108;2023-03-11T16:38:07;7.41;43.17
18361;SHT31;9308;48.550;9.108;2023-03-11T16:40:32;7.15;43.58
18361;SHT31;9308;48.550;9.108;2023-03-11T16:43:10;6.82;43.65
18361;SHT31;9308;48.550;9.108;2023-03-11T16:45:36;7.14;44.25
18361;SHT31;9308;48.550;9.108;2023-03-11T16:48:03;7.30;44.41
18361;SHT31;9308;48.550;9.108;2023-03-11T16:50:30;7.21;44.23
18361;SHT31;9308;48.550;9.108;2023-03-11T16:52:56;6.99;44.62
18361;SHT31;9308;48.550;9.108;2023-03-11T16:55:23;7.03;44.43
18361;SHT31;9308;48.550;9.108;2023-03-11T16:57:49;7.05;45.30
18361;SHT31;9308;48.550;9.108;2023-03-11T17:00:15;6.89;45.39
18361;SHT31;9308;48.550;9.108;2023-03-11T17:02:42;6.79;45.88
18361;SHT31;9308;48.550;9.108;2023-03-11T17:05:08;6.89;46.16
18361;SHT31;9308;48.550;9.108;2023-03-11T17:07:34;6.73;45.58
18361;SHT31;9308;48.550;9.108;2023-03-11T17:09:59;6.77;45.97
18361;SHT31;9308;48.550;9.108;2023-03-11T17:12:26;6.79;45.64
18361;SHT31;9308;48.550;9.108;2023-03-11T17:14:52;6.59;46.87